Time;durP1;ratioP1;P1;durP2;ratioP2;P2;SDS_P1;SDS_P2;PMS_P1;PMS_P2;Temp;Humidity;BMP_temperature;BMP_pressure;BME280_temperature;BME280_humidity;BME280_pressure;Samples;Min_cycle;Max_cycle;Signal;HPM_P1;HPM_P2
2023/04/13 00:01:22;;;;;;;6.22;1.75;;;;;;;6.35;100.00;99157.03;5067623;28;21713;-48
2023/04/13 00:03:47;;;;;;;3.67;1.27;;;;;;;6.31;100.00;99151.25;5049734;28;20122;-53
2023/04/13 00:06:12;;;;;;;5.93;1.30;;;;;;;6.23;100.00;99158.59;5066980;28;20028;-52
2023/04/13 00:08:38;;;;;;;6.53;1.27;;;;;;;6.17;100.00;99165.53;5053443;28;20033;-52
2023/04/13 00:11:06;;;;;;;5.57;1.30;;;;;;;6.06;100.00;99163.41;5070567;28;20545;-49
2023/04/13 00:13:39;;;;;;;11.15;2.10;;;;;;;6.08;100.00;99151.50;5071113;28;20143;-51
2023/04/13 00:16:06;;;;;;;6.20;1.40;;;;;;;6.06;100.00;99174.09;5070392;28;20063;-52
2023/04/13 00:18:31;;;;;;;8.60;2.53;;;;;;;6.03;100.00;99174.44;5053626;28;20065;-50
2023/04/13 00:20:58;;;;;;;5.03;1.80;;;;;;;6.00;100.00;99188.19;5056607;28;20051;-49
2023/04/13 00:23:24;;;;;;;6.97;1.60;;;;;;;5.98;100.00;99179.53;5069850;28;20037;-47
2023/04/13 00:25:50;;;;;;;14.40;2.03;;;;;;;5.96;100.00;99189.63;5069097;28;20051;-48
2023/04/13 00:28:17;;;;;;;8.90;1.63;;;;;;;5.96;100.00;99193.09;5069811;28;20039;-49
2023/04/13 00:30:42;;;;;;;5.05;1.90;;;;;;;5.95;100.00;99199.47;5070359;28;20429;-48
2023/04/13 00:33:08;;;;;;;7.75;1.63;;;;;;;5.96;100.00;99201.13;5071266;28;20036;-46
2023/04/13 00:35:34;;;;;;;4.20;1.80;;;;;;;5.98;100.00;99215.09;5063985;28;20398;-49
2023/04/13 00:38:01;;;;;;;14.57;2.25;;;;;;;5.97;100.00;99224.13;5065495;28;20514;-47
2023/04/13 00:40:28;;;;;;;7.38;1.80;;;;;;;5.98;100.00;99224.94;5071207;28;20485;-53
2023/04/13 00:42:55;;;;;;;6.47;2.58;;;;;;;5.96;100.00;99233.16;5070971;28;20496;-54
2023/04/13 00:45:21;;;;;;;5.53;2.00;;;;;;;6.00;100.00;99246.94;5069938;28;20052;-51
2023/04/13 00:47:47;;;;;;;6.68;1.80;;;;;;;5.98;100.00;99240.97;5069936;28;20032;-55
2023/04/13 00:50:15;;;;;;;4.65;1.60;;;;;;;5.96;100.00;99237.69;5070059;28;20112;-54
2023/04/13 00:52:41;;;;;;;;;;;;;;;5.97;100.00;99247.34;5071400;28;20060;-51
2023/04/13 00:55:07;;;;;;;8.20;2.20;;;;;;;5.99;100.00;99246.13;5068538;28;19963;-52
2023/04/13 00:57:33;;;;;;;9.73;2.20;;;;;;;6.04;100.00;99245.56;5056561;28;20081;-52
2023/04/13 01:00:00;;;;;;;13.30;2.30;;;;;;;6.10;100.00;99258.13;5075156;28;20023;-51
2023/04/13 01:02:25;;;;;;;13.18;2.20;;;;;;;6.15;100.00;99263.72;5075348;28;20103;-51
2023/04/13 01:04:54;;;;;;;10.20;2.30;;;;;;;6.14;100.00;99270.91;5074346;28;20453;-49
2023/04/13 01:07:25;;;;;;;20.65;2.38;;;;;;;6.15;100.00;99279.75;5068157;28;20116;-51
2023/04/13 01:09:58;;;;;;;16.60;2.50;;;;;;;6.13;100.00;99273.78;5053062;28;20033;-49
2023/04/13 01:12:50;;;;;;;14.40;2.38;;;;;;;6.04;100.00;99272.25;5055114;28;20432;-50
2023/04/13 01:15:17;;;;;;;16.00;1.80;;;;;;;6.02;100.00;99277.78;5057095;28;20044;-49
2023/04/13 01:17:50;;;;;;;15.98;2.78;;;;;;;6.04;100.00;99288.28;5071563;28;20103;-49
2023/04/13 01:20:16;;;;;;;19.52;2.42;;;;;;;6.05;100.00;99289.94;5060914;28;20127;-50
2023/04/13 01:22:46;;;;;;;26.20;2.08;;;;;;;6.01;100.00;99289.50;5058119;28;20031;-48
2023/04/13 01:25:24;;;;;;;28.58;1.95;;;;;;;5.99;100.00;99296.03;5071927;28;20048;-50
2023/04/13 01:28:04;;;;;;;19.20;2.53;;;;;;;5.99;100.00;99296.03;5064233;28;20056;-49
2023/04/13 01:30:30;;;;;;;36.80;3.65;;;;;;;5.97;100.00;99303.41;5073835;28;20107;-49
2023/04/13 01:32:56;;;;;;;21.95;2.60;;;;;;;5.90;100.00;99303.31;5072146;28;20029;-50
2023/04/13 01:35:24;;;;;;;29.85;3.15;;;;;;;5.94;100.00;99302.78;5073348;28;20028;-49
2023/04/13 01:37:50;;;;;;;20.20;2.22;;;;;;;5.93;100.00;99303.78;5073549;28;20112;-53
2023/04/13 01:40:15;;;;;;;19.20;2.28;;;;;;;5.90;100.00;99308.66;5074072;28;20033;-49
2023/04/13 01:42:42;;;;;;;24.05;2.53;;;;;;;5.86;100.00;99310.88;5073230;28;20026;-50
2023/04/13 01:45:14;;;;;;;20.85;2.53;;;;;;;5.81;100.00;99321.28;5073336;28;20079;-49
2023/04/13 01:47:46;;;;;;;32.42;3.28;;;;;;;5.80;100.00;99314.31;5073016;28;20457;-48
2023/04/13 01:50:24;;;;;;;25.45;2.38;;;;;;;5.80;100.00;99313.47;5073124;28;20032;-52
2023/04/13 01:52:52;;;;;;;14.80;2.03;;;;;;;5.75;100.00;99319.38;5073845;28;20036;-48
2023/04/13 01:55:18;;;;;;;8.52;1.70;;;;;;;5.76;100.00;99328.22;5068195;28;20068;-51
2023/04/13 01:57:46;;;;;;;21.48;2.10;;;;;;;5.77;100.00;99321.88;5071901;28;20078;-49
2023/04/13 02:00:13;;;;;;;13.43;2.13;;;;;;;5.78;100.00;99327.00;5071789;28;20032;-50
2023/04/13 02:02:39;;;;;;;32.67;2.25;;;;;;;5.83;100.00;99335.28;5074099;28;20036;-50
2023/04/13 02:05:05;;;;;;;21.58;2.88;;;;;;;5.90;100.00;99322.84;5073878;28;20128;-49
2023/04/13 02:07:32;;;;;;;17.30;2.30;;;;;;;5.97;100.00;99330.13;5066296;28;20028;-51
2023/04/13 02:09:57;;;;;;;29.42;2.67;;;;;;;6.01;100.00;99342.09;5073333;28;20127;-50
2023/04/13 02:12:22;;;;;;;15.85;2.05;;;;;;;6.07;100.00;99333.31;5057822;28;20037;-50
2023/04/13 02:14:48;;;;;;;20.25;1.77;;;;;;;6.13;100.00;99340.56;5072036;28;20021;-49
2023/04/13 02:17:13;;;;;;;20.85;2.80;;;;;;;6.15;100.00;99336.69;5071730;28;20082;-51
2023/04/13 02:19:38;;;;;;;18.05;2.75;;;;;;;6.16;100.00;99342.84;5072810;28;20028;-49
2023/04/13 02:22:04;;;;;;;20.25;1.83;;;;;;;6.17;100.00;99335.69;5073647;28;20032;-49
2023/04/13 02:24:31;;;;;;;47.50;3.70;;;;;;;6.18;100.00;99338.13;5072773;28;20492;-49
2023/04/13 02:26:57;;;;;;;30.55;2.42;;;;;;;6.18;100.00;99343.47;5073167;28;20089;-50
2023/04/13 02:29:22;;;;;;;19.23;2.13;;;;;;;6.22;100.00;99339.44;5073495;28;20033;-50
2023/04/13 02:31:48;;;;;;;17.33;2.00;;;;;;;6.24;100.00;99337.41;5073616;28;20036;-49
2023/04/13 02:34:13;;;;;;;26.38;1.88;;;;;;;6.28;100.00;99344.00;5072432;28;20070;-49
2023/04/13 02:36:39;;;;;;;27.63;2.70;;;;;;;6.31;100.00;99338.25;5073505;28;20032;-49
2023/04/13 02:39:05;;;;;;;16.65;2.20;;;;;;;6.36;100.00;99345.72;5070837;28;20025;-50
2023/04/13 02:41:30;;;;;;;23.83;2.35;;;;;;;6.39;100.00;99348.00;5073087;28;20041;-50
2023/04/13 02:43:55;;;;;;;18.70;1.80;;;;;;;6.42;100.00;99350.28;5073066;28;20029;-49
2023/04/13 02:46:22;;;;;;;20.67;2.10;;;;;;;6.46;100.00;99356.09;5071792;28;20103;-48
2023/04/13 02:48:47;;;;;;;26.40;3.20;;;;;;;6.51;100.00;99356.34;5070481;28;20112;-50
2023/04/13 02:51:13;;;;;;;23.17;2.30;;;;;;;6.58;100.00;99357.22;5073079;28;20227;-49
2023/04/13 02:53:38;;;;;;;20.23;2.30;;;;;;;6.62;100.00;99365.69;5067818;28;20441;-49
2023/04/13 02:56:05;;;;;;;28.77;2.95;;;;;;;6.65;100.00;99360.78;5053492;28;20029;-48
2023/04/13 02:58:31;;;;;;;26.70;3.13;;;;;;;6.62;100.00;99358.50;5064703;28;20483;-49
2023/04/13 03:00:57;;;;;;;29.23;3.30;;;;;;;6.64;100.00;99359.13;5071768;28;20067;-48
2023/04/13 03:03:23;;;;;;;22.90;2.90;;;;;;;6.65;100.00;99366.13;5070513;28;20486;-51
2023/04/13 03:05:49;;;;;;;25.33;3.47;;;;;;;6.60;100.00;99376.56;5052643;28;20029;-48
2023/04/13 03:08:16;;;;;;;23.45;2.97;;;;;;;6.57;100.00;99380.44;5061142;28;20720;-50
2023/04/13 03:10:43;;;;;;;37.65;2.95;;;;;;;6.58;100.00;99382.13;5070927;28;20028;-48
2023/04/13 03:13:09;;;;;;;21.50;2.65;;;;;;;6.58;100.00;99386.63;5072436;28;20667;-52
2023/04/13 03:15:35;;;;;;;21.25;2.88;;;;;;;6.56;100.00;99389.50;5072566;28;20107;-50
2023/04/13 03:18:02;;;;;;;14.75;2.47;;;;;;;6.55;100.00;99397.69;5071465;28;20032;-50
2023/04/13 03:20:28;;;;;;;40.45;3.95;;;;;;;6.54;100.00;99402.22;5066088;28;20041;-51
2023/04/13 03:22:54;;;;;;;15.45;3.05;;;;;;;6.54;100.00;99401.41;5073370;28;20481;-49
2023/04/13 03:25:19;;;;;;;22.48;4.28;;;;;;;6.55;100.00;99403.03;5072830;28;20469;-49
2023/04/13 03:27:45;;;;;;;20.80;3.30;;;;;;;6.58;100.00;99414.19;5061081;28;20055;-49
2023/04/13 03:30:10;;;;;;;19.80;3.08;;;;;;;6.58;100.00;99416.88;5072789;28;20037;-48
2023/04/13 03:32:36;;;;;;;20.15;2.67;;;;;;;6.61;100.00;99413.00;5072910;28;20032;-47
2023/04/13 03:35:02;;;;;;;20.65;2.47;;;;;;;6.62;100.00;99414.63;5069899;28;20028;-52
2023/04/13 03:37:31;;;;;;;17.13;2.30;;;;;;;6.68;100.00;99423.72;5056496;28;20036;-50
2023/04/13 03:39:57;;;;;;;28.50;2.65;;;;;;;6.68;100.00;99419.19;5071460;28;20031;-50
2023/04/13 03:42:22;;;;;;;39.10;4.32;;;;;;;6.74;100.00;99413.09;5072247;28;20059;-49
2023/04/13 03:44:48;;;;;;;21.05;2.47;;;;;;;6.78;100.00;99417.03;5072854;28;20028;-49
2023/04/13 03:47:13;;;;;;;15.55;2.17;;;;;;;6.75;100.00;99425.44;5070512;28;20246;-49
2023/04/13 03:49:38;;;;;;;20.10;2.25;;;;;;;6.77;100.00;99428.75;5069885;28;20033;-49
2023/04/13 03:52:04;;;;;;;15.40;1.80;;;;;;;6.80;100.00;99438.25;5071369;28;20050;-52
2023/04/13 03:54:29;;;;;;;14.38;2.38;;;;;;;6.76;100.00;99427.09;5071860;28;20052;-51
2023/04/13 03:56:56;;;;;;;20.63;2.58;;;;;;;6.80;100.00;99432.91;5071297;28;20016;-51
2023/04/13 03:59:22;;;;;;;22.05;2.17;;;;;;;6.79;100.00;99428.56;5070112;28;20381;-50
2023/04/13 04:01:47;;;;;;;26.42;3.05;;;;;;;6.78;100.00;99434.94;5070091;28;20032;-50
2023/04/13 04:04:13;;;;;;;14.50;2.05;;;;;;;6.78;100.00;99433.06;5072361;28;20074;-49
2023/04/13 04:06:38;;;;;;;16.65;1.92;;;;;;;6.78;100.00;99430.41;5071993;28;20039;-50
2023/04/13 04:09:03;;;;;;;20.48;2.70;;;;;;;6.76;100.00;99442.31;5070093;28;20568;-48
2023/04/13 04:11:29;;;;;;;18.95;2.05;;;;;;;6.73;100.00;99435.50;5071597;28;20036;-50
2023/04/13 04:13:54;;;;;;;11.02;2.15;;;;;;;6.73;100.00;99432.00;5071473;28;20021;-51
2023/04/13 04:16:19;;;;;;;22.50;2.42;;;;;;;6.70;100.00;99430.53;5071155;28;20094;-50
2023/04/13 04:18:45;;;;;;;22.92;2.45;;;;;;;6.68;100.00;99429.91;5068420;28;20052;-47
2023/04/13 04:21:12;;;;;;;27.33;2.95;;;;;;;6.68;100.00;99429.91;5069870;28;20373;-50
2023/04/13 04:23:38;;;;;;;25.13;2.42;;;;;;;6.72;100.00;99436.53;5069972;28;20029;-49
2023/04/13 04:26:04;;;;;;;27.40;3.30;;;;;;;6.74;100.00;99439.84;5070236;28;20484;-47
2023/04/13 04:28:30;;;;;;;18.10;2.15;;;;;;;6.78;100.00;99445.63;5067617;28;20056;-50
2023/04/13 04:31:00;;;;;;;24.83;2.97;;;;;;;6.85;100.00;99456.41;5071712;28;20082;-51
2023/04/13 04:33:25;;;;;;;33.65;2.78;;;;;;;6.87;100.00;99471.19;5068886;28;20091;-52
2023/04/13 04:35:51;;;;;;;25.48;2.40;;;;;;;6.91;100.00;99467.13;5053990;28;20037;-50
2023/04/13 04:38:23;;;;;;;14.77;1.85;;;;;;;6.94;100.00;99476.63;5065015;28;20513;-48
2023/04/13 04:40:49;;;;;;;24.65;2.53;;;;;;;6.93;100.00;99470.47;5065409;28;20041;-52
2023/04/13 04:43:14;;;;;;;19.95;1.60;;;;;;;6.92;100.00;99478.66;5075076;28;20055;-48
2023/04/13 04:45:45;;;;;;;12.45;1.77;;;;;;;6.81;100.00;99502.22;5067774;28;20510;-50
2023/04/13 04:48:14;;;;;;;18.08;1.80;;;;;;;6.70;100.00;99500.06;5074498;28;20441;-50
2023/04/13 04:50:43;;;;;;;14.98;1.77;;;;;;;6.71;100.00;99499.03;5073893;28;20036;-49
2023/04/13 04:53:09;;;;;;;14.63;1.80;;;;;;;6.67;100.00;99503.09;5075154;28;20021;-50
2023/04/13 04:55:35;;;;;;;16.63;1.77;;;;;;;6.70;100.00;99505.41;5075499;28;20481;-53
2023/04/13 04:58:00;;;;;;;18.00;1.75;;;;;;;6.71;100.00;99515.06;5074923;28;20032;-50
2023/04/13 05:00:29;;;;;;;37.78;2.83;;;;;;;6.67;100.00;99519.16;5072300;28;20426;-50
2023/04/13 05:02:54;;;;;;;25.80;2.50;;;;;;;6.70;100.00;99529.47;5063913;28;20033;-52
2023/04/13 05:05:20;;;;;;;29.05;3.13;;;;;;;6.74;100.00;99536.09;5069214;28;20040;-49
2023/04/13 05:07:45;;;;;;;24.73;2.33;;;;;;;6.75;100.00;99537.75;5064858;28;20095;-50
2023/04/13 05:10:10;;;;;;;14.50;2.45;;;;;;;6.75;100.00;99537.75;5068032;28;20062;-50
2023/04/13 05:12:36;;;;;;;26.85;2.90;;;;;;;6.76;100.00;99533.22;5074305;28;20044;-50
2023/04/13 05:15:02;;;;;;;25.75;2.45;;;;;;;6.71;100.00;99540.97;5074326;28;20037;-47
2023/04/13 05:17:27;;;;;;;11.55;1.60;;;;;;;6.64;100.00;99534.75;5073600;28;20629;-49
2023/04/13 05:19:53;;;;;;;24.80;2.30;;;;;;;6.65;100.00;99541.75;5071744;28;20080;-48
2023/04/13 05:22:18;;;;;;;26.83;2.42;;;;;;;6.65;100.00;99539.06;5072122;28;20040;-47
2023/04/13 05:24:44;;;;;;;22.27;1.88;;;;;;;6.71;100.00;99554.34;5073051;28;20028;-48
2023/04/13 05:27:10;;;;;;;33.13;2.67;;;;;;;6.74;100.00;99546.81;5072127;28;20415;-47
2023/04/13 05:29:36;;;;;;;21.05;2.30;;;;;;;6.81;100.00;99549.53;5069222;28;20024;-49
2023/04/13 05:32:01;;;;;;;26.55;2.58;;;;;;;6.84;100.00;99561.69;5063995;28;20111;-50
2023/04/13 05:34:27;;;;;;;36.15;3.78;;;;;;;6.90;100.00;99555.56;5072421;28;20024;-49
2023/04/13 05:36:54;;;;;;;29.50;2.55;;;;;;;6.97;100.00;99553.81;5069865;28;20387;-49
2023/04/13 05:39:19;;;;;;;25.40;2.53;;;;;;;7.07;100.00;99561.53;5072340;28;20044;-47
2023/04/13 05:41:45;;;;;;;39.05;4.13;;;;;;;7.12;100.00;99573.31;5065690;28;20037;-48
2023/04/13 05:44:10;;;;;;;24.65;2.78;;;;;;;7.21;100.00;99574.84;5070767;28;20032;-50
2023/04/13 05:46:36;;;;;;;25.63;2.88;;;;;;;7.29;100.00;99575.72;5073667;28;20193;-48
2023/04/13 05:49:02;;;;;;;24.27;2.42;;;;;;;7.34;100.00;99578.66;5073572;28;20070;-49
2023/04/13 05:51:31;;;;;;;29.20;3.05;;;;;;;7.36;100.00;99568.59;5072640;28;20048;-52
2023/04/13 05:53:57;;;;;;;34.75;3.03;;;;;;;7.40;100.00;99567.19;5071889;28;20067;-48
2023/04/13 05:56:24;;;;;;;23.75;3.95;;;;;;;7.44;100.00;99574.63;5071584;28;20052;-51
2023/04/13 05:58:49;;;;;;;40.00;3.65;;;;;;;7.51;100.00;99584.59;5070181;28;20373;-50
2023/04/13 06:01:15;;;;;;;31.50;3.33;;;;;;;7.54;100.00;99585.03;5074000;28;20029;-49
2023/04/13 06:03:42;;;;;;;42.97;4.00;;;;;;;7.56;100.00;99601.72;5072357;28;20039;-50
2023/04/13 06:06:07;;;;;;;40.08;3.40;;;;;;;7.66;100.00;99526.41;5073137;28;20028;-50
2023/04/13 06:08:33;;;;;;;28.17;2.83;;;;;;;7.55;100.00;99613.44;5073769;28;20047;-47
2023/04/13 06:10:59;;;;;;;13.85;1.80;;;;;;;7.45;100.00;99616.47;5073340;28;20671;-48
2023/04/13 06:13:25;;;;;;;23.98;2.63;;;;;;;7.35;100.00;99628.50;5070997;28;20583;-49
2023/04/13 06:15:51;;;;;;;22.40;2.05;;;;;;;7.28;100.00;99628.44;5070835;28;20151;-48
2023/04/13 06:18:17;;;;;;;22.63;2.42;;;;;;;7.26;100.00;99625.94;5072779;28;20036;-51
2023/04/13 06:20:42;;;;;;;38.90;4.30;;;;;;;7.29;100.00;99639.97;5070199;28;20197;-49
2023/04/13 06:23:08;;;;;;;53.78;6.32;;;;;;;7.33;100.00;99642.06;5070535;28;20143;-49
2023/04/13 06:25:33;;;;;;;38.15;4.07;;;;;;;7.43;100.00;99636.41;5072295;28;20078;-50
2023/04/13 06:28:01;;;;;;;38.65;3.72;;;;;;;7.51;100.00;99636.28;5072417;28;20126;-49
2023/04/13 06:30:26;;;;;;;52.15;4.22;;;;;;;7.61;100.00;99639.47;5071027;28;20049;-49
2023/04/13 06:32:51;;;;;;;39.03;4.43;;;;;;;7.36;100.00;99678.34;5070114;28;20154;-51
2023/04/13 06:35:17;;;;;;;29.30;4.22;;;;;;;7.30;100.00;99689.81;5071890;28;20043;-52
2023/04/13 06:37:42;;;;;;;40.17;5.03;;;;;;;7.11;100.00;99694.75;5072253;28;20107;-50
2023/04/13 06:40:11;;;;;;;57.08;4.80;;;;;;;7.07;100.00;99706.81;5072380;28;20063;-51
2023/04/13 06:42:37;;;;;;;51.88;5.90;;;;;;;7.02;100.00;99710.06;5071351;28;20020;-52
2023/04/13 06:45:03;;;;;;;38.72;4.22;;;;;;;7.07;100.00;99716.69;5073085;28;20427;-49
2023/04/13 06:47:29;;;;;;;55.85;4.85;;;;;;;7.07;100.00;99722.06;5072934;28;20051;-51
2023/04/13 06:49:54;;;;;;;75.82;6.10;;;;;;;7.11;100.00;99723.31;5072633;28;20111;-48
2023/04/13 06:52:20;;;;;;;49.97;4.65;;;;;;;7.21;100.00;99727.38;5071509;28;20087;-48
2023/04/13 06:54:45;;;;;;;54.50;4.47;;;;;;;7.36;100.00;99721.97;5056544;28;20049;-49
2023/04/13 06:57:12;;;;;;;40.50;4.55;;;;;;;7.52;100.00;99726.28;5054145;28;20757;-49
2023/04/13 06:59:37;;;;;;;57.70;5.15;;;;;;;7.57;100.00;99726.53;5063155;28;20469;-49
2023/04/13 07:02:02;;;;;;;45.53;4.82;;;;;;;7.74;100.00;99728.97;5051925;28;20044;-49
2023/04/13 07:04:28;;;;;;;49.95;4.45;;;;;;;7.85;100.00;99720.44;5071167;28;20028;-49
2023/04/13 07:06:53;;;;;;;45.35;5.45;;;;;;;7.93;100.00;99717.63;5072636;28;20029;-48
2023/04/13 07:09:19;;;;;;;65.68;5.80;;;;;;;7.92;100.00;99710.59;5071076;28;20036;-50
2023/04/13 07:11:45;;;;;;;54.33;5.47;;;;;;;7.89;100.00;99727.06;5071412;28;20469;-49
2023/04/13 07:14:10;;;;;;;34.10;4.03;;;;;;;7.80;100.00;99709.47;5066106;28;20044;-51
2023/04/13 07:16:35;;;;;;;54.42;5.18;;;;;;;7.89;100.00;99727.06;5051932;28;20103;-47
2023/04/13 07:19:01;;;;;;;52.78;5.63;;;;;;;8.21;100.00;99722.19;5051902;28;20032;-49
2023/04/13 07:21:26;;;;;;;63.85;6.05;;;;;;;8.33;100.00;99715.28;5071241;28;20071;-48
2023/04/13 07:23:52;;;;;;;31.45;5.15;;;;;;;8.35;100.00;99732.00;5071869;28;20037;-50
2023/04/13 07:26:17;;;;;;;40.97;3.60;;;;;;;8.24;100.00;99725.31;5066818;28;20484;-50
2023/04/13 07:28:42;;;;;;;43.97;5.07;;;;;;;8.26;100.00;99735.84;5052005;28;20017;-50
2023/04/13 07:31:08;;;;;;;34.53;3.10;;;;;;;8.29;100.00;99738.97;5060887;28;20120;-49
2023/04/13 07:33:33;;;;;;;42.53;4.40;;;;;;;8.24;100.00;99745.91;5072170;28;20448;-50
2023/04/13 07:35:58;;;;;;;53.65;5.03;;;;;;;8.24;100.00;99745.91;5071025;28;20490;-48
2023/04/13 07:38:24;;;;;;;34.80;4.15;;;;;;;8.32;100.00;99748.44;5072024;28;20050;-49
2023/04/13 07:40:49;;;;;;;36.63;2.78;;;;;;;8.20;100.00;99777.66;5070283;28;20115;-51
2023/04/13 07:43:15;;;;;;;39.15;3.80;;;;;;;8.19;100.00;99764.41;5071210;28;20032;-51
2023/04/13 07:45:40;;;;;;;36.58;3.90;;;;;;;8.20;100.00;99766.91;5070682;28;20032;-48
2023/04/13 07:48:06;;;;;;;54.53;4.85;;;;;;;8.25;100.00;99774.41;5070180;28;20159;-50
2023/04/13 07:50:31;;;;;;;33.05;2.97;;;;;;;8.21;100.00;99760.53;5071709;28;20081;-49
2023/04/13 07:52:56;;;;;;;44.38;3.45;;;;;;;8.25;100.00;99785.13;5070510;28;20040;-51
2023/04/13 07:55:22;;;;;;;43.70;3.75;;;;;;;8.27;100.00;99791.13;5070738;28;20051;-48
2023/04/13 07:57:47;;;;;;;48.03;3.78;;;;;;;8.26;100.00;99802.84;5071073;28;20039;-51
2023/04/13 08:00:13;;;;;;;42.25;4.38;;;;;;;8.28;100.00;99808.84;5068426;28;20037;-49
2023/04/13 08:02:39;;;;;;;51.55;5.43;;;;;;;8.29;100.00;99806.00;5067709;28;20101;-50
2023/04/13 08:05:05;;;;;;;49.95;4.82;;;;;;;8.38;100.00;99819.25;5071375;28;20024;-50
2023/04/13 08:07:30;;;;;;;35.70;3.17;;;;;;;8.40;100.00;99807.34;5071859;28;20496;-49
2023/04/13 08:09:56;;;;;;;33.92;3.70;;;;;;;8.38;100.00;99817.41;5069399;28;20032;-48
2023/04/13 08:12:21;;;;;;;40.28;4.20;;;;;;;8.39;100.00;99829.81;5069168;28;20462;-50
2023/04/13 08:14:47;;;;;;;35.90;4.45;;;;;;;8.36;100.00;99822.13;5071190;28;20118;-49
2023/04/13 08:17:12;;;;;;;41.95;3.95;;;;;;;8.40;100.00;99839.53;5070546;28;20035;-50
2023/04/13 08:19:38;;;;;;;45.70;4.18;;;;;;;8.42;100.00;99840.13;5071621;28;20394;-52
2023/04/13 08:22:03;;;;;;;38.83;3.33;;;;;;;8.48;100.00;99847.44;5072043;28;20102;-49
2023/04/13 08:24:29;;;;;;;29.77;3.03;;;;;;;8.58;100.00;99849.75;5072015;28;20060;-51
2023/04/13 08:26:57;;;;;;;51.45;3.90;;;;;;;8.79;100.00;99841.72;5072064;28;20476;-52
2023/04/13 08:29:23;;;;;;;45.03;4.95;;;;;;;8.99;100.00;99841.00;5070152;28;20021;-50
2023/04/13 08:31:49;;;;;;;38.90;3.50;;;;;;;9.25;100.00;99844.91;5071489;28;20162;-48
2023/04/13 08:34:18;;;;;;;34.00;2.97;;;;;;;9.52;100.00;99849.38;5071239;28;20098;-49
2023/04/13 08:36:44;;;;;;;45.38;4.15;;;;;;;9.81;100.00;99850.94;5064654;28;20090;-49
2023/04/13 08:39:10;;;;;;;33.08;3.33;;;;;;;9.82;100.00;99841.88;5051729;28;20033;-47
2023/04/13 08:41:39;;;;;;;48.70;3.95;;;;;;;9.73;100.00;99848.44;5051928;28;20025;-48
2023/04/13 08:44:06;;;;;;;39.05;4.70;;;;;;;9.95;100.00;99861.72;5051555;28;20578;-47
2023/04/13 08:46:35;;;;;;;48.28;4.03;;;;;;;9.80;100.00;99861.91;5051394;28;20040;-49
2023/04/13 08:49:02;;;;;;;33.20;3.70;;;;;;;10.35;100.00;99878.00;5051644;28;20112;-48
2023/04/13 08:51:28;;;;;;;51.60;2.90;;;;;;;10.49;100.00;99858.16;5051751;28;20427;-47
2023/04/13 08:53:55;;;;;;;34.70;3.50;;;;;;;10.76;100.00;99865.19;5051365;28;20033;-51
2023/04/13 08:56:21;;;;;;;35.50;4.03;;;;;;;11.00;100.00;99862.91;5051100;28;20053;-49
2023/04/13 08:58:48;;;;;;;38.65;3.63;;;;;;;11.38;100.00;99881.09;5050983;28;20021;-50
2023/04/13 09:01:14;;;;;;;31.25;4.13;;;;;;;11.89;100.00;99890.28;5051086;28;20358;-49
2023/04/13 09:03:52;;;;;;;31.00;3.80;;;;;;;12.17;100.00;99866.50;5049973;28;20110;-47
2023/04/13 09:06:24;;;;;;;35.90;3.90;;;;;;;12.66;100.00;99883.00;5051452;28;20025;-47
2023/04/13 09:08:52;;;;;;;28.10;3.65;;;;;;;13.06;100.00;99901.56;5051315;28;20715;-48
2023/04/13 09:11:17;;;;;;;28.02;3.47;;;;;;;13.47;100.00;99902.88;5049940;28;20064;-49
2023/04/13 09:13:49;;;;;;;35.70;4.70;;;;;;;13.86;97.26;99906.22;5051577;28;20056;-47
2023/04/13 09:16:14;;;;;;;33.17;3.40;;;;;;;14.49;96.40;99884.13;5052221;28;20025;-49
2023/04/13 09:18:49;;;;;;;23.80;3.20;;;;;;;14.57;91.76;99919.03;5054964;28;20161;-48
2023/04/13 09:21:14;;;;;;;25.13;3.20;;;;;;;14.67;94.36;99924.72;5054405;28;20508;-48
2023/04/13 09:23:39;;;;;;;44.67;4.13;;;;;;;13.61;93.61;99936.81;5054648;28;20124;-48
2023/04/13 09:26:06;;;;;;;33.67;4.20;;;;;;;13.69;96.68;99916.78;5054594;28;20044;-49
2023/04/13 09:28:32;;;;;;;36.47;3.88;;;;;;;13.55;97.68;99935.03;5054595;28;20107;-47
2023/04/13 09:31:02;;;;;;;35.30;3.85;;;;;;;13.54;96.80;99927.97;5054324;28;20029;-50
2023/04/13 09:33:32;;;;;;;36.47;4.10;;;;;;;13.98;98.83;99928.72;5054709;28;20336;-48
2023/04/13 09:36:07;;;;;;;36.00;3.88;;;;;;;13.79;96.09;99944.13;5054019;28;20083;-49
2023/04/13 09:38:33;;;;;;;33.03;4.05;;;;;;;13.53;94.67;99959.59;5054465;28;20025;-49
2023/04/13 09:40:59;;;;;;;25.60;3.38;;;;;;;13.21;93.07;99941.75;5054306;28;20036;-49
2023/04/13 09:43:33;;;;;;;26.23;3.08;;;;;;;12.67;94.93;99954.84;5054622;28;20061;-49
2023/04/13 09:45:59;;;;;;;31.58;3.75;;;;;;;12.77;95.45;99963.31;5055254;28;20118;-49
2023/04/13 09:48:25;;;;;;;34.17;3.50;;;;;;;12.68;94.39;99972.69;5070596;28;20449;-50
2023/04/13 09:51:01;;;;;;;30.27;3.13;;;;;;;12.50;96.39;99979.63;5071569;28;20024;-50
2023/04/13 09:53:28;;;;;;;34.42;3.67;;;;;;;13.17;97.18;99987.31;5063448;28;20051;-49
2023/04/13 09:55:57;;;;;;;21.13;2.87;;;;;;;13.22;93.81;99981.22;5065257;28;20056;-50
2023/04/13 09:58:23;;;;;;;24.40;2.75;;;;;;;13.03;93.41;99989.28;5058929;28;20029;-47
2023/04/13 10:00:49;;;;;;;34.10;2.60;;;;;;;12.85;93.93;99998.16;5072729;28;20021;-48
2023/04/13 10:03:17;;;;;;;30.73;3.30;;;;;;;12.75;94.96;100003.19;5072196;28;20033;-49
2023/04/13 10:05:42;;;;;;;;;;;;;;;12.70;97.66;100005.72;5074012;28;20033;-49
2023/04/13 10:08:08;;;;;;;32.55;3.03;;;;;;;13.34;96.64;100015.47;5072740;28;19962;-47
2023/04/13 10:10:35;;;;;;;21.15;2.40;;;;;;;13.21;95.06;100023.66;5073841;28;20051;-49
2023/04/13 10:13:05;;;;;;;15.80;2.70;;;;;;;13.03;94.03;100018.16;5072537;28;20024;-49
2023/04/13 10:16:08;;;;;;;35.33;3.28;;;;;;;12.74;94.75;100023.97;5057046;28;20033;-48
2023/04/13 10:19:00;;;;;;;22.73;2.47;;;;;;;12.63;95.29;100027.31;5059662;28;20040;-48
2023/04/13 10:21:32;;;;;;;15.75;2.08;;;;;;;13.22;94.86;100036.13;5062500;28;20040;-48
2023/04/13 10:23:57;;;;;;;28.33;4.13;;;;;;;13.45;92.33;100045.53;5071693;28;20029;-49
2023/04/13 10:26:33;;;;;;;38.45;3.55;;;;;;;12.90;93.16;100022.63;5073227;28;20036;-48
2023/04/13 10:29:00;;;;;;;28.38;2.80;;;;;;;13.07;95.56;100044.53;5071575;28;20048;-48
2023/04/13 10:31:38;;;;;;;24.83;2.70;;;;;;;13.27;94.23;100057.94;5073004;28;20032;-48
2023/04/13 10:34:05;;;;;;;22.20;2.47;;;;;;;13.09;93.66;100057.84;5073675;28;20032;-48
2023/04/13 10:36:38;;;;;;;38.10;3.92;;;;;;;13.34;94.51;100061.41;5072905;28;20037;-50
2023/04/13 10:39:04;;;;;;;26.33;2.97;;;;;;;13.20;93.43;100059.81;5073079;28;20082;-48
2023/04/13 10:41:29;;;;;;;29.92;3.53;;;;;;;13.13;94.10;100080.66;5052117;28;20033;-49
2023/04/13 10:44:02;;;;;;;26.30;3.28;;;;;;;13.04;95.72;100055.78;5066327;28;20591;-48
2023/04/13 10:46:32;;;;;;;31.65;3.00;;;;;;;12.94;94.32;100075.16;5072149;28;20037;-49
2023/04/13 10:48:58;;;;;;;27.98;3.40;;;;;;;13.08;95.44;100083.19;5070701;28;20111;-50
2023/04/13 10:51:43;;;;;;;25.73;2.30;;;;;;;14.02;92.28;100073.31;5071028;28;20024;-48
2023/04/13 10:54:11;;;;;;;22.15;3.88;;;;;;;14.46;90.11;100088.47;5070884;28;20691;-49
2023/04/13 10:56:36;;;;;;;31.08;3.90;;;;;;;14.50;89.13;100103.19;5068032;28;20136;-49
2023/04/13 10:59:03;;;;;;;24.63;3.38;;;;;;;14.42;88.68;100094.53;5062873;28;20463;-48
2023/04/13 11:01:30;;;;;;;15.98;2.03;;;;;;;13.93;85.26;100116.06;5071690;28;20684;-48
2023/04/13 11:03:56;;;;;;;29.63;3.28;;;;;;;12.94;86.95;100109.44;5071725;28;20086;-48
2023/04/13 11:06:22;;;;;;;26.38;3.22;;;;;;;12.19;90.11;100109.91;5071191;28;20040;-48
2023/04/13 11:08:48;;;;;;;31.60;3.20;;;;;;;11.79;94.07;100106.38;5070970;28;20032;-49
2023/04/13 11:11:23;;;;;;;26.88;2.88;;;;;;;11.67;95.63;100121.53;5070577;28;20033;-50
2023/04/13 11:13:48;;;;;;;20.58;2.47;;;;;;;12.25;94.53;100124.41;5066503;28;20036;-49
2023/04/13 11:16:14;;;;;;;20.88;2.75;;;;;;;12.23;94.99;100129.19;5070053;28;20033;-48
2023/04/13 11:18:40;;;;;;;20.88;3.50;;;;;;;12.03;95.27;100121.97;5072479;28;20457;-47
2023/04/13 11:21:13;;;;;;;22.38;2.42;;;;;;;12.41;98.19;100132.06;5070358;28;20130;-48
2023/04/13 11:23:39;;;;;;;22.65;2.72;;;;;;;12.44;95.91;100130.81;5065381;28;20025;-50